Akaska, South Dakota
Current Conditions -  °F | °C
As of 8:52 PM on Sunday 23 Nov 2014 (Local Time) from KMBG Reporting Station
Overcast Overcast  
Wind Chill: -12°   Ceiling: 2700
Heat Index: -4°   Visibility: 10mi
Dew Point: -9°   Wind: 23mph
Humidity: 69%   Direction: 330°NNW
Pressure: 29.64"   Gusts: 32mph
Location:  45.33°N, 100.12°W
Report Text: KMBG 240252Z AUTO 33020G28KT 10SM OVC027 M04/M09 A2964 RMK AO2 PK WND 33028/0233 SLP055 T10391089 55002
Loading
Personal Weather Stations






























Interactive Weather Map New forecast layout! Learn more

10-Day Weather Forecast

Advertisements
Track Severe Weather on mobile